AirNav   Everest Fuels
 
 725 users online  

50F Bourland Field Airport
Fort Worth, Texas, USA

GOING TO FORT WORTH?


FAA INFORMATION EFFECTIVE 05 DECEMBER 2019

Location

FAA Identifier: 50F
Lat/Long: 32-34-54.6000N 097-35-26.8000W
32-34.910000N 097-35.446667W
32.5818333,-97.5907778
(estimated)
Elevation: 873.2 ft. / 266.2 m (surveyed)
Variation: 06E (2000)
From city: 17 miles SW of FORT WORTH, TX
Time zone: UTC -6 (UTC -5 during Daylight Saving Time)
Zip code: 76126

Airport Operations

Airport use: Open to the public
Activation date: 09/1981
Control tower: no
ARTCC: FORT WORTH CENTER
FSS: FORT WORTH FLIGHT SERVICE STATION
NOTAMs facility: FTW (NOTAM-D service available)
Attendance: MON-SAT DAYLIGHT HOURS
FOR SVCS AFT HRS CALL 817-396-4554.
Wind indicator: lighted
Segmented circle: yes
Lights: ACTVT MIRL RY 17/35, VASI RYS 17 & 35 - CTAF.
Beacon: white-green (lighted land airport)
Operates sunset to sunrise.

Airport Communications

CTAF/UNICOM: 123.0
REGIONAL APPROACH: 135.975
REGIONAL DEPARTURE: 135.975
DODJE STAR: 125.2 125.9
LIKES STAR: 125.8 ;SOUTH 135.975 ;NORTH
MOTZA STAR: 118.1 ;SOUTH 125.8 ;NORTH
REEKO STAR: 125.2
SANGR STAR: 124.3
SASIE STAR: 124.3
SLUGG STAR: 125.8 ;SOUTH 135.975 ;NORTH
WESAT STAR: 118.1 ;SOUTH 125.8 ;NORTH
WX AWOS-3 at GDJ (14 nm SW): 118.925 (817-573-7514)
WX AWOS-3 at FWS (14 nm E): 120.025 (817-426-4172)
WX AWOS-3 at CPT (16 nm SE): 119.525 (817-641-4135)
WX ASOS at FTW (18 nm NE): PHONE 817-740-3346

Nearby radio navigation aids

VOR radial/distance  VOR name  Freq  Var
MQPr104/22.3MILLSAP VORTAC117.7009E
FUZr222/27.8RANGER VORTAC115.7006E
JENr024/29.2GLEN ROSE VORTAC115.0006E
TTTr232/32.7MAVERICK VOR/DME113.1006E
CVEr236/39.3COWBOY VOR/DME116.2006E

Airport Services

Fuel available: 100LL JET-A
FUEL AVBL SELF SERVE AND FULL SERVICE
Parking: hangars and tiedowns

Runway Information

Runway 17/35

Dimensions: 4049 x 60 ft. / 1234 x 18 m
Surface: asphalt, in good condition
Runway edge lights: medium intensity
RY 17/35 NSTD MIRL; LENSES ON THLD & DSPLCD THLD CLEAR LENSES WITH SOLID COLOR BULBS.
RUNWAY 17  RUNWAY 35
Latitude: 32-35.240523N32-34.580380N
Longitude: 097-35.505517W097-35.388090W
Elevation: 873.1 ft.836.7 ft.
Traffic pattern: leftleft
Runway heading: 165 magnetic, 171 true345 magnetic, 351 true
Displaced threshold: 392 ft.215 ft.
Markings: nonprecision, in good conditionnonprecision, in good condition
Visual slope indicator: 2-box VASI on left (3.00 degrees glide path)2-box VASI on left (3.00 degrees glide path)
Touchdown point: yes, no lightsyes, no lights
Obstructions: 15 ft. road, 201 ft. from runway, 33 ft. right of centerline
15 FT RD 0 FT DSTC 112 FT R.
40 ft. trees, 201 ft. from runway, 60 ft. right of centerline
40 FT TREES 0-120 FT DSTC 60 FT R & L.

Airport Ownership and Management from official FAA records

Ownership: Privately-owned
Owner: MATT RIX
17611 HWY 377 SOUTH
CRESSON, TX 76035
Phone 817-307-0718
ALSO MATTHEW MOORE - 682-521-7056.
Manager: KEVIN LOGUE
11661 HWY 377 SOUTH
CRESSON, TX 76035
Phone 817-396-4554
817-832-5689 MGR CELL.

Airport Operational Statistics

Aircraft based on the field: 118
Single engine airplanes: 100
Multi engine airplanes: 15
Jet airplanes: 2
Helicopters: 1
    
Aircraft operations: avg 128/day *
75% local general aviation
25% transient general aviation
* for 12-month period ending 30 December 2018

Additional Remarks

FOR CD CTC REGIONAL APCH AT 972-615-2799.
BRUSH & TREES OBSCURE VIEW OF RWY & APPROACH AT TXY HOLD POSITIONS.
OPR STATUS OF RWY LIGHTS UNKN. NMRS LIGHTS KNOCKED OVER, BROKEN, BARE WIRES, EXPOSED WIRES.

Instrument Procedures

NOTE: All procedures below are presented as PDF files. If you need a reader for these files, you should download the free Adobe Reader.

NOT FOR NAVIGATION. Please procure official charts for flight.
FAA instrument procedures published for use from 05 December 2019 at 0900Z to 02 January 2020 at 0900Z.

 
STARs - Standard Terminal Arrivals
LIKES THREE (RNAV)   download (195KB)
MOTZA NINE   2 pages: [1] [2] (484KB)
REEKO THREE (RNAV)   download (199KB)
SASIE SIX **NEW**   2 pages: [1] [2] (475KB)
TRUUK TWO (RNAV)   download (196KB)
WESAT TWO (RNAV)   download (192KB)
 
IAPs - Instrument Approach Procedures
RNAV (GPS) RWY 17 **CHANGED**   download (153KB)
RNAV (GPS) RWY 35   download (169KB)
 
Departure Procedures
GARLAND SIX   2 pages: [1] [2] (339KB)
HUBBARD NINE   2 pages: [1] [2] (329KB)
KINGDOM FIVE   2 pages: [1] [2] (340KB)
KUSSO FIVE (RNAV)   2 pages: [1] [2] (279KB)
SWABR FIVE (RNAV)   2 pages: [1] [2] (277KB)
NOTE: Special Take-Off Minimums/Departure Procedures apply   download

Other nearby airports with instrument procedures:

KWEA - Parker County Airport (11 nm NW)
KNFW - Fort Worth Naval Air Station JRB (Carswell Field) Airport (14 nm NE)
KGDJ - Granbury Regional Airport (14 nm SW)
KFWS - Fort Worth Spinks Airport (14 nm E)
KCPT - Cleburne Regional Airport (16 nm SE)
KFTW - Fort Worth Meacham International Airport (18 nm NE)
 
Loc | Ops | Rwys | IFR | FBO | Links
Com | Nav | Svcs | Stats | Notes
Area around 50F (Bourland Field Airport)
 
Road maps at: MapQuest Bing Google
 
Aerial photo
WARNING: Photo may not be current or correct
Aerial photo of 50F (Bourland Field Airport)
Photo by Paul Bristow
Photo taken 01-Jun-2008

Do you have a better or more recent aerial photo of Bourland Field Airport that you would like to share? If so, please send us your photo.

 
Sectional chart

 
Airport distance calculator
Flying to Bourland Field Airport? Find the distance to fly.

From to 50F

Sunrise and sunset
Times for 08-Dec-2019
 Local
(UTC-6)
 Zulu
(UTC)
Morning civil twilight06:5412:54
Sunrise07:2113:21
Sunset17:2423:24
Evening civil twilight17:5123:51

Current date and time
Zulu (UTC)  08-Dec-2019 21:37:23
Local (UTC-6)  08-Dec-2019 15:37:23
 
METAR
KNFW 
13nm NE 
081952Z 18016G22KT 10SM SCT220 BKN300 22/09 A2983 RMK SLP086 T02250089 VISNO N
KGDJ 
14nm SW 
AWOS-3 118.925 817-573-7514
082115Z AUTO 19017KT 10SM CLR 24/09 A2983 RMK AO2 T02410093
KFWS 
15nm E 
082050Z 18012G18KT 10SM CLR 22/11 A2984
KCPT 
16nm SE 
082115Z AUTO 18018G23KT 7SM CLR 23/10 A2983 RMK AO2 PWINO
KFTW 
19nm NE 
082053Z 18014G23KT 10SM CLR 22/10 A2980 RMK AO2 SLP086 T02170100 56037
KGKY 
25nm E 
082053Z 17012G20KT 10SM CLR 22/11 A2982 RMK AO2 PK WND 17026/2025 SLP091 T02170111 56034
TAF
KNFW 
13nm NE 
0820/0915 19018G25KT 9999 BKN250 510007 QNH2977INS FM090800 22015KT 9999 OVC080 WSCONDS 500000 QNH2976INS T23/0822Z T17/0913Z AMD 1955 FN20048
KFTW 
19nm NE 
081729Z 0818/0918 19017G25KT P6SM BKN250 FM091000 22015KT P6SM BKN150 FM091700 27012KT P6SM BKN100
NOTAMs
Click for the latest NOTAMs
NOTAMs are issued by the DoD/FAA and will open in a separate window not controlled by AirNav.

 

 
 

FBO, Fuel Providers, and Aircraft Ground Support

  
 Business Name 
 
 Contact 
 
 Services / Description 
 
Fuel Prices
 
Comments
  
Bourland Field 817-396-4554
no information available

If you are affiliated with Bourland Field and would like to show here your services, contact info, web link, logo, and more, click here
100LL Jet A
FS --- $3.63 
SS $4.07 $3.63 
 Updated 07-Nov-2019
 
   write
FS=Full service
SS=Self service
Update Fuel Prices
 

Would you like to see your business listed on this page?

 If your business provides an interesting product or service to pilots, flight crews, aircraft, or users of the Bourland Field Airport, you should consider listing it here.  To start the listing process, click on the button below
 
Add a business
 

Other Pages about Bourland Field Airport

www.bourlandestates.com/bourlandfield.htm
 
Update a link
 
Copyright © AirNav, LLC. All rights reserved. Privacy Policy  Contact